createdAt,value
2022-10-07T00:00:16.656Z,2.43
2022-10-07T00:02:49.621Z,2.73
2022-10-07T00:05:19.279Z,3.33
2022-10-07T00:07:50.063Z,2.70
2022-10-07T00:10:21.136Z,4.67
2022-10-07T00:12:50.952Z,3.33
2022-10-07T00:15:19.977Z,3.30
2022-10-07T00:17:48.864Z,2.90
2022-10-07T00:20:17.563Z,4.17
2022-10-07T00:22:47.820Z,2.80
2022-10-07T00:25:17.944Z,2.97
2022-10-07T00:27:51.293Z,2.73
2022-10-07T00:30:21.750Z,4.03
2022-10-07T00:32:50.752Z,3.17
2022-10-07T00:35:19.651Z,3.00
2022-10-07T00:37:48.570Z,3.10
2022-10-07T00:40:18.842Z,3.50
2022-10-07T00:42:51.619Z,3.47
2022-10-07T00:45:23.413Z,3.10
2022-10-07T00:47:53.556Z,3.23
2022-10-07T00:50:26.607Z,3.27
2022-10-07T00:52:59.592Z,2.93
2022-10-07T00:55:29.158Z,2.93
2022-10-07T00:58:03.233Z,3.10
2022-10-07T01:00:32.523Z,3.70
2022-10-07T01:03:01.341Z,2.87
2022-10-07T01:05:31.467Z,2.90
2022-10-07T01:08:01.113Z,3.13
2022-10-07T01:10:34.534Z,3.00
2022-10-07T01:13:10.459Z,2.93
2022-10-07T01:15:41.404Z,3.53
2022-10-07T01:18:18.697Z,3.10
2022-10-07T01:20:52.554Z,3.30
2022-10-07T01:23:40.997Z,2.93
2022-10-07T01:26:28.468Z,3.77
2022-10-07T01:29:00.912Z,3.53
2022-10-07T01:31:37.772Z,2.73
2022-10-07T01:34:08.251Z,3.50
2022-10-07T01:36:39.506Z,3.67
2022-10-07T01:39:15.348Z,3.67
2022-10-07T01:41:45.404Z,3.37
2022-10-07T01:44:17.323Z,3.10
2022-10-07T01:46:49.273Z,3.60
2022-10-07T01:49:18.306Z,3.10
2022-10-07T01:51:54.224Z,3.30
2022-10-07T01:54:29.325Z,3.30
2022-10-07T01:57:06.272Z,3.63
2022-10-07T01:59:47.290Z,3.70
2022-10-07T02:02:21.307Z,3.77
2022-10-07T02:04:58.179Z,3.47
2022-10-07T02:07:35.284Z,3.40
2022-10-07T02:10:09.757Z,3.33
2022-10-07T02:12:42.443Z,3.10
2022-10-07T02:15:16.922Z,3.47
2022-10-07T02:17:48.849Z,3.43
2022-10-07T02:20:18.834Z,2.90
2022-10-07T02:22:48.054Z,2.60
2022-10-07T02:25:17.792Z,3.30
2022-10-07T02:27:48.739Z,3.70
2022-10-07T02:30:22.201Z,4.00
2022-10-07T02:32:54.191Z,3.30
2022-10-07T02:35:27.573Z,3.90
2022-10-07T02:38:00.144Z,4.63
2022-10-07T02:40:34.087Z,3.10
2022-10-07T02:43:06.781Z,4.00
2022-10-07T02:45:46.002Z,3.10
2022-10-07T02:48:20.995Z,3.00
2022-10-07T02:50:52.721Z,3.07
2022-10-07T02:53:22.207Z,2.43
2022-10-07T02:55:52.252Z,3.60
2022-10-07T02:58:21.528Z,3.23
2022-10-07T03:00:55.106Z,3.40
2022-10-07T03:03:24.691Z,3.37
2022-10-07T03:06:06.350Z,3.60
2022-10-07T03:08:38.193Z,3.43
2022-10-07T03:11:07.968Z,3.63
2022-10-07T03:13:37.016Z,3.83
2022-10-07T03:16:08.008Z,3.13
2022-10-07T03:18:36.652Z,3.00
2022-10-07T03:21:29.160Z,2.97
2022-10-07T03:24:04.927Z,4.00
2022-10-07T03:26:40.022Z,3.13
2022-10-07T03:29:10.369Z,3.80
2022-10-07T03:31:43.284Z,3.47
2022-10-07T03:34:12.456Z,3.60
2022-10-07T03:36:45.422Z,2.97
2022-10-07T03:39:14.800Z,3.10
2022-10-07T03:41:45.491Z,3.03
2022-10-07T03:44:15.720Z,3.23
2022-10-07T03:46:50.138Z,2.97
2022-10-07T03:49:21.122Z,3.60
2022-10-07T03:51:51.090Z,3.00
2022-10-07T03:54:22.121Z,3.77
2022-10-07T03:56:50.783Z,2.80
2022-10-07T03:59:20.833Z,3.73
2022-10-07T04:01:55.004Z,4.07
2022-10-07T04:04:24.677Z,3.30
2022-10-07T04:06:54.771Z,4.47
2022-10-07T04:09:23.724Z,2.77
2022-10-07T04:11:53.723Z,3.30
2022-10-07T04:14:22.999Z,3.33
2022-10-07T04:16:54.828Z,3.80
2022-10-07T04:19:25.082Z,3.33
2022-10-07T04:21:54.745Z,2.90
2022-10-07T04:24:23.830Z,3.77
2022-10-07T04:26:53.744Z,3.40
2022-10-07T04:29:23.208Z,3.80
2022-10-07T04:31:58.650Z,3.80
2022-10-07T04:34:27.703Z,3.90
2022-10-07T04:37:01.090Z,3.43
2022-10-07T04:39:56.073Z,3.60
2022-10-07T04:42:41.488Z,3.40
2022-10-07T04:45:10.945Z,4.50
2022-10-07T04:47:43.037Z,3.30
2022-10-07T04:50:13.009Z,3.77
2022-10-07T04:52:43.601Z,3.60
2022-10-07T04:55:14.341Z,2.97
2022-10-07T04:57:44.873Z,3.00
2022-10-07T05:00:14.252Z,3.50
2022-10-07T05:02:51.440Z,3.40
2022-10-07T05:05:27.917Z,4.27
2022-10-07T05:07:56.831Z,3.33
2022-10-07T05:10:28.243Z,2.70
2022-10-07T05:12:57.923Z,3.97
2022-10-07T05:15:26.772Z,3.30
2022-10-07T05:17:57.457Z,4.27
2022-10-07T05:20:28.680Z,3.57
2022-10-07T05:22:58.516Z,3.20
2022-10-07T05:25:27.142Z,2.97
2022-10-07T05:27:56.140Z,3.20
2022-10-07T05:30:25.829Z,4.23
2022-10-07T05:32:58.522Z,3.90
2022-10-07T05:35:27.481Z,3.40
2022-10-07T05:37:56.993Z,2.83
2022-10-07T05:40:27.558Z,4.20
2022-10-07T05:42:56.872Z,3.20
2022-10-07T05:45:26.938Z,3.57
2022-10-07T05:47:58.318Z,3.37
2022-10-07T05:50:27.201Z,3.13
2022-10-07T05:52:55.873Z,3.43
2022-10-07T05:55:24.611Z,3.50
2022-10-07T05:57:54.295Z,3.60
2022-10-07T06:00:23.316Z,3.97
2022-10-07T06:02:53.453Z,4.70
2022-10-07T06:05:24.233Z,3.70
2022-10-07T06:07:53.603Z,3.90
2022-10-07T06:10:41.091Z,3.60
2022-10-07T06:13:12.339Z,3.83
2022-10-07T06:15:45.813Z,3.20
2022-10-07T06:18:15.439Z,3.53
2022-10-07T06:20:54.388Z,3.60
2022-10-07T06:23:25.397Z,3.97
2022-10-07T06:25:58.188Z,2.90
2022-10-07T06:28:33.497Z,4.50
2022-10-07T06:31:06.326Z,4.07
2022-10-07T06:33:37.327Z,3.20
2022-10-07T06:36:09.296Z,3.97
2022-10-07T06:38:37.853Z,3.80
2022-10-07T06:41:07.361Z,3.80
2022-10-07T06:43:38.183Z,3.30
2022-10-07T06:46:09.596Z,3.27
2022-10-07T06:48:42.848Z,3.00
2022-10-07T06:51:16.293Z,3.60
2022-10-07T06:53:46.412Z,3.43
2022-10-07T06:56:16.064Z,3.37
2022-10-07T06:58:45.592Z,3.43
2022-10-07T07:01:18.302Z,2.87
2022-10-07T07:03:46.909Z,3.60
2022-10-07T07:06:17.606Z,2.97
2022-10-07T07:08:50.088Z,4.13
2022-10-07T07:11:42.957Z,3.30
2022-10-07T07:14:19.182Z,3.00
2022-10-07T07:16:54.439Z,3.93
2022-10-07T07:19:25.538Z,3.70
2022-10-07T07:21:55.789Z,2.70
2022-10-07T07:24:27.119Z,3.70
2022-10-07T07:26:57.099Z,4.20
2022-10-07T07:29:30.986Z,4.20
2022-10-07T07:32:04.884Z,2.93
2022-10-07T07:34:38.234Z,3.97
2022-10-07T07:37:10.285Z,2.87
2022-10-07T07:39:46.071Z,3.73
2022-10-07T07:42:17.382Z,3.40
2022-10-07T07:44:46.136Z,2.93
2022-10-07T07:47:20.991Z,3.67
2022-10-07T07:49:50.508Z,3.30
2022-10-07T07:52:32.871Z,2.63
2022-10-07T07:55:04.343Z,3.60
2022-10-07T07:57:33.201Z,2.63
2022-10-07T08:00:07.477Z,3.30
2022-10-07T08:02:44.672Z,3.93
2022-10-07T08:05:23.710Z,3.23
2022-10-07T08:07:56.205Z,2.70
2022-10-07T08:10:27.682Z,2.77
2022-10-07T08:12:56.755Z,3.43
2022-10-07T08:15:25.689Z,3.37
2022-10-07T08:17:55.242Z,3.80
2022-10-07T08:20:26.338Z,2.87
2022-10-07T08:22:59.096Z,3.77
2022-10-07T08:25:29.555Z,2.93
2022-10-07T08:28:01.148Z,3.23
2022-10-07T08:30:31.880Z,3.20
2022-10-07T08:33:01.629Z,3.43
2022-10-07T08:35:30.737Z,2.77
2022-10-07T08:38:01.756Z,3.53
2022-10-07T08:40:30.450Z,3.03
2022-10-07T08:43:01.186Z,3.67
2022-10-07T08:45:33.684Z,2.97
2022-10-07T08:48:04.373Z,3.30
2022-10-07T08:50:39.572Z,2.90
2022-10-07T08:53:13.793Z,2.43
2022-10-07T08:55:43.783Z,2.60
2022-10-07T08:58:22.824Z,3.00
2022-10-07T09:00:54.834Z,3.23
2022-10-07T09:03:32.467Z,3.00
2022-10-07T09:06:03.374Z,2.53
2022-10-07T09:08:36.037Z,2.90
2022-10-07T09:11:16.480Z,3.33
2022-10-07T09:13:48.636Z,2.53
2022-10-07T09:16:22.716Z,2.47
2022-10-07T09:18:54.097Z,2.30
2022-10-07T09:21:30.492Z,2.57
2022-10-07T09:24:06.548Z,3.27
2022-10-07T09:26:35.262Z,2.30
2022-10-07T09:29:04.771Z,2.30
2022-10-07T09:31:34.937Z,2.50
2022-10-07T09:34:03.817Z,2.43
2022-10-07T09:36:32.486Z,2.60
2022-10-07T09:39:17.473Z,2.60
2022-10-07T09:41:49.598Z,2.30
2022-10-07T09:44:27.536Z,2.40
2022-10-07T09:46:59.856Z,3.10
2022-10-07T09:49:34.262Z,2.30
2022-10-07T09:52:04.397Z,3.00
2022-10-07T09:54:36.145Z,2.20
2022-10-07T09:57:07.643Z,2.13
2022-10-07T09:59:37.107Z,2.40
2022-10-07T10:02:17.507Z,2.67
2022-10-07T10:06:53.117Z,2.03
2022-10-07T10:09:23.720Z,2.13
2022-10-07T10:12:13.351Z,2.43
2022-10-07T10:14:48.969Z,1.60
2022-10-07T10:17:30.171Z,1.73
2022-10-07T10:20:14.640Z,2.20
2022-10-07T10:22:45.995Z,1.47
2022-10-07T10:25:33.150Z,1.63
2022-10-07T10:28:05.258Z,2.43
2022-10-07T10:30:36.285Z,1.60
2022-10-07T10:33:10.158Z,1.67
2022-10-07T10:35:42.425Z,1.40
2022-10-07T10:38:20.785Z,1.40
2022-10-07T10:40:53.754Z,1.90
2022-10-07T10:43:27.337Z,1.70
2022-10-07T10:46:10.258Z,1.70
2022-10-07T10:48:44.899Z,3.00
2022-10-07T10:51:29.156Z,1.30
2022-10-07T10:54:07.258Z,1.97
2022-10-07T10:56:39.126Z,1.50
2022-10-07T10:59:16.105Z,1.13
2022-10-07T11:01:46.439Z,1.60
2022-10-07T11:04:34.501Z,1.47
2022-10-07T11:07:04.121Z,1.67
2022-10-07T11:09:38.566Z,1.43
2022-10-07T11:12:14.252Z,1.07
2022-10-07T11:47:07.424Z,1.50
2022-10-07T11:49:43.758Z,1.60
2022-10-07T11:52:23.401Z,2.70
2022-10-07T11:55:05.107Z,2.20
2022-10-07T11:57:38.029Z,1.98
2022-10-07T12:00:09.080Z,1.90
2022-10-07T12:02:48.530Z,1.45
2022-10-07T12:05:55.482Z,1.60
2022-10-07T12:08:32.963Z,2.05
2022-10-07T12:11:45.975Z,2.00
2022-10-07T12:14:44.957Z,1.63
2022-10-07T12:17:22.239Z,1.50
2022-10-07T12:20:24.232Z,1.40
2022-10-07T12:23:28.462Z,1.60
2022-10-07T12:26:44.572Z,1.58
2022-10-07T12:29:25.765Z,1.40
2022-10-07T12:31:54.171Z,1.65
2022-10-07T12:34:30.301Z,1.80
2022-10-07T12:37:32.009Z,1.50
2022-10-07T12:40:06.286Z,1.47
2022-10-07T12:42:37.773Z,1.80
2022-10-07T12:45:08.922Z,1.70
2022-10-07T12:47:39.488Z,1.80
2022-10-07T12:50:14.477Z,1.90
2022-10-07T12:52:47.893Z,2.30
2022-10-07T12:55:28.552Z,1.77
2022-10-07T12:58:21.656Z,1.95
2022-10-07T13:01:11.481Z,1.70
2022-10-07T13:04:06.758Z,1.55
2022-10-07T13:07:14.052Z,1.58
2022-10-07T13:10:03.694Z,1.70
2022-10-07T13:12:39.098Z,1.50
2022-10-07T13:15:19.692Z,1.55
2022-10-07T13:17:55.650Z,2.00
2022-10-07T13:20:42.665Z,1.70
2022-10-07T13:23:21.991Z,1.88
2022-10-07T13:25:58.021Z,1.60
2022-10-07T13:28:31.985Z,1.90
2022-10-07T13:31:17.772Z,1.45
2022-10-07T13:33:46.270Z,1.92
2022-10-07T13:36:17.633Z,1.40
2022-10-07T13:38:48.074Z,1.50
2022-10-07T13:41:21.998Z,1.50
2022-10-07T13:43:54.118Z,1.88
2022-10-07T13:46:27.457Z,1.77
2022-10-07T13:48:56.961Z,1.58
2022-10-07T13:51:30.761Z,1.60
